NJE854L LSZR-EGLF
Flight info
| Callsign | NJE854L |
|---|---|
| Flight time | 1h 31m |
| Altitude | 40000 |
| Route | ALAGO Z1 ETAGO DCT LIRSU DCT DENUT L610 LAM L179 ICTAM Q63 CPT |
| Aircraft | CL60/M-SBDE1E2E3FGHIJ1J3J4J7RWXYZ/LB1D1 |
Departure
| Time | 2026-04-20 12:05 |
|---|---|
| Airport | Sankt Gallen Altenrhein Airport (LSZR) |
Arrival
| Time | 2026-04-20 13:37 |
|---|---|
| Airport | Farnborough Airport (EGLF) |
| Time | Latitude | Longitude | Altitude | Speed | Heading |
|---|---|---|---|---|---|
| 2026-04-20 11:41 | 47.48720 | 9.55253 | 1310 ft | 0 kts | 9° |
| 2026-04-20 11:55 | 47.48723 | 9.55253 | 1310 ft | 1 kts | 13° |
| 2026-04-20 11:56 | 47.48729 | 9.55266 | 1310 ft | 3 kts | 90° |
| 2026-04-20 11:56 | 47.48712 | 9.55321 | 1310 ft | 6 kts | 121° |
| 2026-04-20 11:56 | 47.48688 | 9.55343 | 1310 ft | 0 kts | 187° |
| 2026-04-20 11:59 | 47.48680 | 9.55342 | 1310 ft | 4 kts | 187° |
| 2026-04-20 11:59 | 47.48649 | 9.55336 | 1310 ft | 4 kts | 187° |
| 2026-04-20 11:59 | 47.48602 | 9.55332 | 1310 ft | 9 kts | 160° |
| 2026-04-20 12:00 | 47.48568 | 9.55465 | 1310 ft | 20 kts | 98° |
| 2026-04-20 12:00 | 47.48544 | 9.55701 | 1310 ft | 23 kts | 98° |
| 2026-04-20 12:00 | 47.48519 | 9.55948 | 1310 ft | 25 kts | 98° |
| 2026-04-20 12:00 | 47.48491 | 9.56213 | 1311 ft | 27 kts | 99° |
| 2026-04-20 12:01 | 47.48461 | 9.56487 | 1311 ft | 26 kts | 100° |
| 2026-04-20 12:01 | 47.48435 | 9.56746 | 1312 ft | 25 kts | 98° |
| 2026-04-20 12:01 | 47.48414 | 9.56949 | 1312 ft | 5 kts | 96° |
| 2026-04-20 12:01 | 47.48414 | 9.56950 | 1312 ft | 0 kts | 96° |
| 2026-04-20 12:03 | 47.48414 | 9.56956 | 1312 ft | 3 kts | 96° |
| 2026-04-20 12:03 | 47.48418 | 9.57023 | 1312 ft | 3 kts | 74° |
| 2026-04-20 12:03 | 47.48405 | 9.57037 | 1312 ft | 6 kts | 259° |
| 2026-04-20 12:04 | 47.48407 | 9.57007 | 1312 ft | 3 kts | 279° |
| 2026-04-20 12:04 | 47.48409 | 9.56997 | 1312 ft | 0 kts | 280° |
| 2026-04-20 12:04 | 47.48410 | 9.56984 | 1312 ft | 9 kts | 279° |
| 2026-04-20 12:05 | 47.48481 | 9.56300 | 1311 ft | 121 kts | 279° |
| 2026-04-20 12:05 | 47.48656 | 9.54749 | 1712 ft | 170 kts | 279° |
| 2026-04-20 12:05 | 47.48851 | 9.52963 | 2633 ft | 190 kts | 278° |
| 2026-04-20 12:05 | 47.49015 | 9.50971 | 3648 ft | 199 kts | 278° |
| 2026-04-20 12:06 | 47.49199 | 9.49038 | 4492 ft | 196 kts | 281° |
| 2026-04-20 12:06 | 47.49437 | 9.47020 | 5171 ft | 208 kts | 281° |
| 2026-04-20 12:06 | 47.49675 | 9.45004 | 6482 ft | 201 kts | 281° |
| 2026-04-20 12:06 | 47.49909 | 9.43014 | 7801 ft | 202 kts | 280° |
| 2026-04-20 12:07 | 47.50137 | 9.41069 | 9163 ft | 201 kts | 280° |
| 2026-04-20 12:07 | 47.50368 | 9.39107 | 10549 ft | 198 kts | 280° |
| 2026-04-20 12:07 | 47.50653 | 9.37158 | 11558 ft | 213 kts | 289° |
| 2026-04-20 12:07 | 47.51592 | 9.35112 | 11618 ft | 273 kts | 321° |
| 2026-04-20 12:08 | 47.53492 | 9.34047 | 12272 ft | 311 kts | 352° |
| 2026-04-20 12:08 | 47.55687 | 9.34236 | 13362 ft | 327 kts | 1° |
| 2026-04-20 12:08 | 47.57946 | 9.34572 | 14573 ft | 333 kts | 360° |
| 2026-04-20 12:08 | 47.60248 | 9.34894 | 15740 ft | 338 kts | 358° |
| 2026-04-20 12:09 | 47.62581 | 9.35200 | 16883 ft | 342 kts | 358° |
| 2026-04-20 12:09 | 47.64953 | 9.35493 | 17988 ft | 346 kts | 357° |
| 2026-04-20 12:09 | 47.67365 | 9.35772 | 19020 ft | 351 kts | 356° |
| 2026-04-20 12:09 | 47.69776 | 9.36033 | 20039 ft | 354 kts | 356° |
| 2026-04-20 12:10 | 47.72226 | 9.36294 | 21072 ft | 355 kts | 355° |
| 2026-04-20 12:10 | 47.74680 | 9.36550 | 22035 ft | 357 kts | 355° |
| 2026-04-20 12:10 | 47.77152 | 9.36805 | 22974 ft | 358 kts | 355° |
| 2026-04-20 12:10 | 47.79633 | 9.37056 | 23866 ft | 360 kts | 354° |
| 2026-04-20 12:11 | 47.82140 | 9.37305 | 24623 ft | 366 kts | 354° |
| 2026-04-20 12:11 | 47.84691 | 9.37556 | 25379 ft | 371 kts | 354° |
| 2026-04-20 12:11 | 47.87277 | 9.37807 | 26045 ft | 376 kts | 354° |
| 2026-04-20 12:11 | 47.89899 | 9.38062 | 26727 ft | 380 kts | 354° |
| 2026-04-20 12:12 | 47.92571 | 9.38320 | 27374 ft | 384 kts | 354° |
| 2026-04-20 12:12 | 47.95262 | 9.38578 | 27932 ft | 390 kts | 354° |
| 2026-04-20 12:12 | 47.97969 | 9.38837 | 28499 ft | 394 kts | 354° |
| 2026-04-20 12:12 | 48.00740 | 9.39103 | 29047 ft | 398 kts | 354° |
| 2026-04-20 12:13 | 48.03512 | 9.39367 | 29603 ft | 400 kts | 354° |
| 2026-04-20 12:13 | 48.06320 | 9.39635 | 30100 ft | 404 kts | 354° |
| 2026-04-20 12:13 | 48.09142 | 9.39904 | 30627 ft | 406 kts | 354° |
| 2026-04-20 12:13 | 48.11982 | 9.40175 | 31070 ft | 410 kts | 354° |
| 2026-04-20 12:14 | 48.14848 | 9.40445 | 31447 ft | 414 kts | 354° |
| 2026-04-20 12:14 | 48.17758 | 9.40722 | 31879 ft | 416 kts | 355° |
| 2026-04-20 12:14 | 48.20665 | 9.40998 | 32266 ft | 419 kts | 354° |
| 2026-04-20 12:14 | 48.23591 | 9.41275 | 32604 ft | 421 kts | 355° |
| 2026-04-20 12:15 | 48.26527 | 9.41554 | 32970 ft | 423 kts | 355° |
| 2026-04-20 12:15 | 48.29444 | 9.41834 | 33429 ft | 421 kts | 355° |
| 2026-04-20 12:15 | 48.32359 | 9.42114 | 33919 ft | 419 kts | 355° |
| 2026-04-20 12:15 | 48.35300 | 9.42394 | 34347 ft | 418 kts | 355° |
| 2026-04-20 12:16 | 48.38200 | 9.42671 | 34682 ft | 418 kts | 355° |
| 2026-04-20 12:16 | 48.41095 | 9.42946 | 34928 ft | 418 kts | 355° |
| 2026-04-20 12:16 | 48.44000 | 9.43222 | 35155 ft | 419 kts | 355° |
| 2026-04-20 12:16 | 48.46908 | 9.43499 | 35375 ft | 419 kts | 355° |
| 2026-04-20 12:17 | 48.49820 | 9.43776 | 35606 ft | 420 kts | 356° |
| 2026-04-20 12:17 | 48.52714 | 9.44052 | 35829 ft | 421 kts | 356° |
| 2026-04-20 12:17 | 48.55661 | 9.44332 | 36065 ft | 422 kts | 356° |
| 2026-04-20 12:17 | 48.58605 | 9.44613 | 36312 ft | 424 kts | 356° |
| 2026-04-20 12:18 | 48.61551 | 9.44886 | 36572 ft | 424 kts | 356° |
| 2026-04-20 12:18 | 48.64460 | 9.44834 | 36880 ft | 418 kts | 349° |
| 2026-04-20 12:18 | 48.67326 | 9.44200 | 37143 ft | 414 kts | 342° |
| 2026-04-20 12:18 | 48.70076 | 9.43003 | 37386 ft | 410 kts | 335° |
| 2026-04-20 12:19 | 48.72650 | 9.41296 | 37740 ft | 406 kts | 328° |
| 2026-04-20 12:19 | 48.75074 | 9.39073 | 37889 ft | 405 kts | 321° |
| 2026-04-20 12:19 | 48.77243 | 9.36435 | 38063 ft | 404 kts | 315° |
| 2026-04-20 12:19 | 48.79214 | 9.33323 | 38188 ft | 405 kts | 308° |
| 2026-04-20 12:20 | 48.80952 | 9.29978 | 38333 ft | 406 kts | 306° |
| 2026-04-20 12:20 | 48.82664 | 9.26608 | 38483 ft | 407 kts | 307° |
| 2026-04-20 12:20 | 48.84401 | 9.23195 | 38621 ft | 409 kts | 306° |
| 2026-04-20 12:20 | 48.86146 | 9.19759 | 38808 ft | 410 kts | 307° |
| 2026-04-20 12:21 | 48.87886 | 9.16331 | 38993 ft | 410 kts | 306° |
| 2026-04-20 12:21 | 48.89606 | 9.12938 | 39177 ft | 411 kts | 307° |
| 2026-04-20 12:21 | 48.91357 | 9.09479 | 39340 ft | 411 kts | 306° |
| 2026-04-20 12:21 | 48.93079 | 9.06073 | 39498 ft | 411 kts | 307° |
| 2026-04-20 12:22 | 48.94833 | 9.02600 | 39689 ft | 411 kts | 307° |
| 2026-04-20 12:22 | 48.96561 | 8.99174 | 39791 ft | 413 kts | 307° |
| 2026-04-20 12:22 | 48.98302 | 8.95719 | 39950 ft | 413 kts | 307° |
| 2026-04-20 12:22 | 49.00044 | 8.92258 | 40065 ft | 414 kts | 307° |
| 2026-04-20 12:23 | 49.03570 | 8.85236 | 40092 ft | 420 kts | 307° |
| 2026-04-20 12:23 | 49.07141 | 8.78107 | 40097 ft | 425 kts | 307° |
| 2026-04-20 12:24 | 49.10704 | 8.70975 | 40107 ft | 428 kts | 307° |
| 2026-04-20 12:24 | 49.14302 | 8.63756 | 40103 ft | 429 kts | 307° |
| 2026-04-20 12:25 | 49.17911 | 8.56494 | 40112 ft | 428 kts | 307° |
| 2026-04-20 12:25 | 49.21491 | 8.49271 | 40119 ft | 428 kts | 307° |
| 2026-04-20 12:26 | 49.25085 | 8.41998 | 40118 ft | 428 kts | 307° |
| 2026-04-20 12:26 | 49.28671 | 8.34725 | 40108 ft | 428 kts | 306° |
| 2026-04-20 12:27 | 49.32244 | 8.27456 | 40118 ft | 429 kts | 306° |
| 2026-04-20 12:27 | 49.35826 | 8.20149 | 40129 ft | 429 kts | 306° |
| 2026-04-20 12:28 | 49.39428 | 8.12782 | 40112 ft | 430 kts | 306° |
| 2026-04-20 12:28 | 49.42988 | 8.05480 | 40120 ft | 429 kts | 306° |
| 2026-04-20 12:29 | 49.46555 | 7.98145 | 40115 ft | 429 kts | 306° |
| 2026-04-20 12:29 | 49.50130 | 7.90771 | 40115 ft | 429 kts | 306° |
| 2026-04-20 12:30 | 49.53703 | 7.83382 | 40120 ft | 430 kts | 306° |
| 2026-04-20 12:30 | 49.57282 | 7.75960 | 40122 ft | 430 kts | 306° |
| 2026-04-20 12:31 | 49.60839 | 7.68561 | 40121 ft | 431 kts | 306° |
| 2026-04-20 12:31 | 49.64416 | 7.61102 | 40117 ft | 431 kts | 306° |
| 2026-04-20 12:32 | 49.67963 | 7.53685 | 40129 ft | 431 kts | 306° |
| 2026-04-20 12:32 | 49.71521 | 7.46223 | 40129 ft | 432 kts | 306° |
| 2026-04-20 12:33 | 49.75109 | 7.38677 | 40129 ft | 432 kts | 306° |
| 2026-04-20 12:33 | 49.78654 | 7.31196 | 40130 ft | 432 kts | 306° |
| 2026-04-20 12:34 | 49.82200 | 7.23697 | 40125 ft | 433 kts | 305° |
| 2026-04-20 12:34 | 49.85747 | 7.16176 | 40138 ft | 432 kts | 306° |
| 2026-04-20 12:35 | 49.89281 | 7.08659 | 40146 ft | 433 kts | 305° |
| 2026-04-20 12:35 | 49.92816 | 7.01119 | 40149 ft | 433 kts | 305° |
| 2026-04-20 12:36 | 49.96363 | 6.93531 | 40138 ft | 434 kts | 305° |
| 2026-04-20 12:36 | 49.99906 | 6.85930 | 40139 ft | 435 kts | 305° |
| 2026-04-20 12:37 | 50.03439 | 6.78330 | 40128 ft | 435 kts | 306° |
| 2026-04-20 12:37 | 50.06972 | 6.70707 | 40143 ft | 435 kts | 305° |
| 2026-04-20 12:38 | 50.10509 | 6.63054 | 40132 ft | 435 kts | 305° |
| 2026-04-20 12:38 | 50.14049 | 6.55377 | 40133 ft | 435 kts | 305° |
| 2026-04-20 12:39 | 50.19292 | 6.43807 | 40100 ft | 434 kts | 302° |
| 2026-04-20 12:40 | 50.22461 | 6.35783 | 40120 ft | 434 kts | 301° |
| 2026-04-20 12:40 | 50.25629 | 6.27723 | 40122 ft | 435 kts | 301° |
| 2026-04-20 12:41 | 50.28792 | 6.19657 | 40112 ft | 436 kts | 301° |
| 2026-04-20 12:41 | 50.31950 | 6.11583 | 40124 ft | 436 kts | 301° |
| 2026-04-20 12:42 | 50.35098 | 6.03510 | 40123 ft | 435 kts | 301° |
| 2026-04-20 12:42 | 50.38258 | 5.95385 | 40119 ft | 437 kts | 301° |
| 2026-04-20 12:43 | 50.41398 | 5.87286 | 40132 ft | 438 kts | 301° |
| 2026-04-20 12:43 | 50.44542 | 5.79154 | 40149 ft | 437 kts | 301° |
| 2026-04-20 12:44 | 50.47681 | 5.71011 | 40165 ft | 437 kts | 301° |
| 2026-04-20 12:44 | 50.50816 | 5.62850 | 40171 ft | 437 kts | 301° |
| 2026-04-20 12:45 | 50.53945 | 5.54681 | 40164 ft | 437 kts | 301° |
| 2026-04-20 12:45 | 50.57057 | 5.46532 | 40179 ft | 438 kts | 301° |
| 2026-04-20 12:46 | 50.60187 | 5.38309 | 40184 ft | 437 kts | 301° |
| 2026-04-20 12:46 | 50.63312 | 5.30073 | 40194 ft | 437 kts | 300° |
| 2026-04-20 12:47 | 50.66413 | 5.21876 | 40197 ft | 438 kts | 300° |
| 2026-04-20 12:47 | 50.69541 | 5.13578 | 40182 ft | 439 kts | 300° |
| 2026-04-20 12:48 | 50.72636 | 5.05342 | 40178 ft | 440 kts | 300° |
| 2026-04-20 12:48 | 50.75753 | 4.97023 | 40189 ft | 441 kts | 300° |
| 2026-04-20 12:49 | 50.78854 | 4.88720 | 40201 ft | 441 kts | 300° |
| 2026-04-20 12:49 | 50.81934 | 4.80446 | 40196 ft | 439 kts | 300° |
| 2026-04-20 12:50 | 50.85024 | 4.72116 | 40195 ft | 438 kts | 301° |
| 2026-04-20 12:50 | 50.88124 | 4.63736 | 40203 ft | 439 kts | 300° |
| 2026-04-20 12:51 | 50.91201 | 4.55390 | 40209 ft | 439 kts | 300° |
| 2026-04-20 12:51 | 50.94280 | 4.47008 | 40210 ft | 441 kts | 300° |
| 2026-04-20 12:52 | 50.97370 | 4.38574 | 40195 ft | 442 kts | 301° |
| 2026-04-20 12:52 | 51.00471 | 4.30075 | 40211 ft | 442 kts | 300° |
| 2026-04-20 12:53 | 51.03540 | 4.21642 | 40207 ft | 442 kts | 300° |
| 2026-04-20 12:53 | 51.06612 | 4.13169 | 40205 ft | 442 kts | 300° |
| 2026-04-20 12:54 | 51.09680 | 4.04681 | 40210 ft | 442 kts | 300° |
| 2026-04-20 12:54 | 51.12718 | 3.96248 | 40207 ft | 442 kts | 300° |
| 2026-04-20 12:55 | 51.15776 | 3.87730 | 40211 ft | 442 kts | 300° |
| 2026-04-20 12:55 | 51.18824 | 3.79213 | 40205 ft | 443 kts | 300° |
| 2026-04-20 12:56 | 51.21875 | 3.70650 | 40217 ft | 443 kts | 299° |
| 2026-04-20 12:56 | 51.24154 | 3.61603 | 40222 ft | 444 kts | 285° |
| 2026-04-20 12:57 | 51.25455 | 3.51970 | 40215 ft | 444 kts | 283° |
| 2026-04-20 12:57 | 51.26722 | 3.42387 | 40222 ft | 445 kts | 283° |
| 2026-04-20 12:58 | 51.27977 | 3.32702 | 40236 ft | 444 kts | 282° |
| 2026-04-20 12:58 | 51.29218 | 3.23028 | 40235 ft | 444 kts | 282° |
| 2026-04-20 12:59 | 51.30444 | 3.13406 | 40235 ft | 444 kts | 282° |
| 2026-04-20 12:59 | 51.31663 | 3.03772 | 40239 ft | 444 kts | 282° |
| 2026-04-20 13:00 | 51.32880 | 2.94094 | 40235 ft | 445 kts | 282° |
| 2026-04-20 13:00 | 51.34082 | 2.84451 | 40231 ft | 445 kts | 282° |
| 2026-04-20 13:01 | 51.35281 | 2.74782 | 40243 ft | 444 kts | 282° |
| 2026-04-20 13:01 | 51.36482 | 2.65060 | 40236 ft | 444 kts | 282° |
| 2026-04-20 13:02 | 51.37661 | 2.55459 | 40231 ft | 444 kts | 282° |
| 2026-04-20 13:02 | 51.38847 | 2.45725 | 40226 ft | 444 kts | 282° |
| 2026-04-20 13:03 | 51.40016 | 2.36061 | 40237 ft | 444 kts | 282° |
| 2026-04-20 13:03 | 51.41158 | 2.26558 | 40235 ft | 443 kts | 282° |
| 2026-04-20 13:04 | 51.42340 | 2.16886 | 40235 ft | 444 kts | 282° |
| 2026-04-20 13:04 | 51.43519 | 2.07190 | 40232 ft | 443 kts | 282° |
| 2026-04-20 13:05 | 51.44681 | 1.97534 | 40237 ft | 444 kts | 282° |
| 2026-04-20 13:05 | 51.45826 | 1.87816 | 40238 ft | 444 kts | 282° |
| 2026-04-20 13:06 | 51.46954 | 1.78114 | 40233 ft | 444 kts | 282° |
| 2026-04-20 13:06 | 51.48076 | 1.68364 | 40234 ft | 444 kts | 282° |
| 2026-04-20 13:07 | 51.49182 | 1.58695 | 40239 ft | 444 kts | 282° |
| 2026-04-20 13:07 | 51.50291 | 1.48914 | 40244 ft | 444 kts | 282° |
| 2026-04-20 13:08 | 51.51387 | 1.39181 | 40253 ft | 444 kts | 282° |
| 2026-04-20 13:08 | 51.52480 | 1.29406 | 40252 ft | 444 kts | 281° |
| 2026-04-20 13:09 | 51.53561 | 1.19648 | 40258 ft | 444 kts | 281° |
| 2026-04-20 13:09 | 51.54634 | 1.09886 | 40270 ft | 443 kts | 281° |
| 2026-04-20 13:10 | 51.55690 | 1.00196 | 40260 ft | 444 kts | 281° |
| 2026-04-20 13:10 | 51.56742 | 0.90464 | 40256 ft | 444 kts | 281° |
| 2026-04-20 13:11 | 51.57790 | 0.80695 | 40265 ft | 444 kts | 281° |
| 2026-04-20 13:11 | 51.58825 | 0.70966 | 40268 ft | 444 kts | 281° |
| 2026-04-20 13:12 | 51.59865 | 0.61108 | 40258 ft | 444 kts | 281° |
| 2026-04-20 13:12 | 51.60883 | 0.51382 | 40273 ft | 443 kts | 281° |
| 2026-04-20 13:13 | 51.61897 | 0.41610 | 40262 ft | 443 kts | 281° |
| 2026-04-20 13:13 | 51.62885 | 0.32005 | 39715 ft | 447 kts | 281° |
| 2026-04-20 13:13 | 51.63381 | 0.27150 | 39176 ft | 442 kts | 281° |
| 2026-04-20 13:14 | 51.63878 | 0.22274 | 38630 ft | 437 kts | 281° |
| 2026-04-20 13:14 | 51.64250 | 0.17405 | 38071 ft | 435 kts | 275° |
| 2026-04-20 13:14 | 51.64224 | 0.12493 | 37439 ft | 436 kts | 268° |
| 2026-04-20 13:14 | 51.63808 | 0.07671 | 36876 ft | 434 kts | 263° |
| 2026-04-20 13:15 | 51.63292 | 0.02915 | 36284 ft | 431 kts | 263° |
| 2026-04-20 13:15 | 51.62782 | -0.01792 | 35728 ft | 426 kts | 264° |
| 2026-04-20 13:15 | 51.62272 | -0.06493 | 35152 ft | 422 kts | 264° |
| 2026-04-20 13:15 | 51.61774 | -0.11092 | 34615 ft | 416 kts | 265° |
| 2026-04-20 13:16 | 51.61366 | -0.15663 | 34052 ft | 411 kts | 266° |
| 2026-04-20 13:16 | 51.61000 | -0.20143 | 33517 ft | 406 kts | 266° |
| 2026-04-20 13:16 | 51.60630 | -0.24649 | 32915 ft | 404 kts | 266° |
| 2026-04-20 13:16 | 51.60262 | -0.29087 | 32413 ft | 398 kts | 267° |
| 2026-04-20 13:17 | 51.59899 | -0.33444 | 31884 ft | 396 kts | 267° |
| 2026-04-20 13:17 | 51.59532 | -0.37836 | 31366 ft | 391 kts | 267° |
| 2026-04-20 13:17 | 51.59170 | -0.42138 | 30854 ft | 385 kts | 267° |
| 2026-04-20 13:17 | 51.58816 | -0.46327 | 30338 ft | 379 kts | 268° |
| 2026-04-20 13:18 | 51.58464 | -0.50485 | 29848 ft | 374 kts | 267° |
| 2026-04-20 13:18 | 51.58116 | -0.54576 | 29360 ft | 371 kts | 268° |
| 2026-04-20 13:18 | 51.57764 | -0.58699 | 28866 ft | 369 kts | 268° |
| 2026-04-20 13:18 | 51.57417 | -0.62749 | 28374 ft | 367 kts | 268° |
| 2026-04-20 13:19 | 51.57068 | -0.66813 | 27891 ft | 365 kts | 266° |
| 2026-04-20 13:19 | 51.56718 | -0.70849 | 27410 ft | 363 kts | 267° |
| 2026-04-20 13:19 | 51.56373 | -0.74830 | 26932 ft | 361 kts | 266° |
| 2026-04-20 13:19 | 51.56026 | -0.78814 | 26451 ft | 359 kts | 266° |
| 2026-04-20 13:20 | 51.55682 | -0.82744 | 25979 ft | 355 kts | 267° |
| 2026-04-20 13:20 | 51.55343 | -0.86596 | 25515 ft | 350 kts | 267° |
| 2026-04-20 13:20 | 51.55005 | -0.90417 | 25062 ft | 345 kts | 267° |
| 2026-04-20 13:20 | 51.54670 | -0.94202 | 24608 ft | 341 kts | 267° |
| 2026-04-20 13:21 | 51.54336 | -0.97957 | 24160 ft | 336 kts | 267° |
| 2026-04-20 13:21 | 51.54012 | -1.01590 | 23713 ft | 330 kts | 267° |
| 2026-04-20 13:21 | 51.53689 | -1.05184 | 23292 ft | 325 kts | 267° |
| 2026-04-20 13:21 | 51.53369 | -1.08749 | 22863 ft | 321 kts | 267° |
| 2026-04-20 13:22 | 51.53052 | -1.12254 | 22422 ft | 318 kts | 266° |
| 2026-04-20 13:22 | 51.52433 | -1.15653 | 21955 ft | 321 kts | 250° |
| 2026-04-20 13:22 | 51.51121 | -1.18554 | 21565 ft | 328 kts | 231° |
| 2026-04-20 13:22 | 51.49203 | -1.20605 | 21096 ft | 340 kts | 210° |
| 2026-04-20 13:23 | 51.46853 | -1.21359 | 20608 ft | 353 kts | 184° |
| 2026-04-20 13:23 | 51.44402 | -1.20891 | 20050 ft | 357 kts | 175° |
| 2026-04-20 13:23 | 51.41968 | -1.20298 | 19609 ft | 352 kts | 176° |
| 2026-04-20 13:23 | 51.39561 | -1.19724 | 19132 ft | 349 kts | 175° |
| 2026-04-20 13:24 | 51.37197 | -1.19162 | 18684 ft | 345 kts | 175° |
| 2026-04-20 13:24 | 51.34840 | -1.18603 | 18229 ft | 341 kts | 175° |
| 2026-04-20 13:24 | 51.32509 | -1.18051 | 17777 ft | 338 kts | 175° |
| 2026-04-20 13:24 | 51.30207 | -1.17508 | 17340 ft | 335 kts | 175° |
| 2026-04-20 13:25 | 51.27925 | -1.16970 | 16897 ft | 332 kts | 175° |
| 2026-04-20 13:25 | 51.25652 | -1.16436 | 16461 ft | 329 kts | 175° |
| 2026-04-20 13:25 | 51.23401 | -1.15907 | 16025 ft | 326 kts | 174° |
| 2026-04-20 13:25 | 51.21179 | -1.15387 | 15591 ft | 324 kts | 174° |
| 2026-04-20 13:26 | 51.18961 | -1.14868 | 15168 ft | 321 kts | 174° |
| 2026-04-20 13:26 | 51.16727 | -1.14346 | 14731 ft | 319 kts | 174° |
| 2026-04-20 13:26 | 51.14551 | -1.13838 | 14285 ft | 310 kts | 174° |
| 2026-04-20 13:26 | 51.12468 | -1.13351 | 13910 ft | 300 kts | 174° |
| 2026-04-20 13:27 | 51.10433 | -1.12889 | 13522 ft | 292 kts | 176° |
| 2026-04-20 13:27 | 51.08476 | -1.13209 | 13147 ft | 277 kts | 207° |
| 2026-04-20 13:27 | 51.07055 | -1.15039 | 12824 ft | 255 kts | 244° |
| 2026-04-20 13:27 | 51.06642 | -1.17590 | 12631 ft | 233 kts | 277° |
| 2026-04-20 13:28 | 51.06956 | -1.20068 | 12264 ft | 233 kts | 295° |
| 2026-04-20 13:28 | 51.07790 | -1.22249 | 11978 ft | 227 kts | 314° |
| 2026-04-20 13:28 | 51.08982 | -1.23805 | 11696 ft | 224 kts | 332° |
| 2026-04-20 13:28 | 51.10440 | -1.24676 | 11365 ft | 223 kts | 349° |
| 2026-04-20 13:29 | 51.11967 | -1.24814 | 10915 ft | 224 kts | 1° |
| 2026-04-20 13:29 | 51.13536 | -1.24717 | 10489 ft | 223 kts | 1° |
| 2026-04-20 13:29 | 51.15071 | -1.24630 | 10077 ft | 222 kts | 1° |
| 2026-04-20 13:29 | 51.16590 | -1.24543 | 9675 ft | 215 kts | 2° |
| 2026-04-20 13:30 | 51.18043 | -1.24079 | 9014 ft | 216 kts | 23° |
| 2026-04-20 13:30 | 51.19230 | -1.22649 | 8334 ft | 218 kts | 49° |
| 2026-04-20 13:30 | 51.19855 | -1.20482 | 7706 ft | 219 kts | 77° |
| 2026-04-20 13:30 | 51.20000 | -1.18087 | 7104 ft | 217 kts | 83° |
| 2026-04-20 13:31 | 51.20111 | -1.15736 | 6516 ft | 213 kts | 84° |
| 2026-04-20 13:31 | 51.20225 | -1.13411 | 5902 ft | 210 kts | 83° |
| 2026-04-20 13:31 | 51.20338 | -1.11100 | 5279 ft | 208 kts | 84° |
| 2026-04-20 13:31 | 51.20448 | -1.08836 | 4663 ft | 205 kts | 84° |
| 2026-04-20 13:32 | 51.20557 | -1.06597 | 4126 ft | 204 kts | 84° |
| 2026-04-20 13:32 | 51.20665 | -1.04376 | 3613 ft | 201 kts | 84° |
| 2026-04-20 13:32 | 51.20773 | -1.02177 | 3239 ft | 192 kts | 84° |
| 2026-04-20 13:32 | 51.20871 | -1.00136 | 3005 ft | 179 kts | 84° |
| 2026-04-20 13:33 | 51.20973 | -0.98201 | 2769 ft | 171 kts | 81° |
| 2026-04-20 13:33 | 51.21287 | -0.96420 | 2534 ft | 164 kts | 67° |
| 2026-04-20 13:33 | 51.21771 | -0.94904 | 2479 ft | 140 kts | 61° |
| 2026-04-20 13:33 | 51.22258 | -0.93526 | 2484 ft | 142 kts | 61° |
| 2026-04-20 13:34 | 51.22736 | -0.92145 | 2451 ft | 142 kts | 62° |
| 2026-04-20 13:34 | 51.23206 | -0.90749 | 2227 ft | 142 kts | 62° |
| 2026-04-20 13:34 | 51.23661 | -0.89382 | 2028 ft | 139 kts | 62° |
| 2026-04-20 13:34 | 51.24096 | -0.88072 | 1823 ft | 125 kts | 62° |
| 2026-04-20 13:35 | 51.24482 | -0.86913 | 1662 ft | 117 kts | 62° |
| 2026-04-20 13:35 | 51.24859 | -0.85784 | 1454 ft | 115 kts | 61° |
| 2026-04-20 13:35 | 51.25235 | -0.84656 | 1269 ft | 115 kts | 62° |
| 2026-04-20 13:35 | 51.25606 | -0.83520 | 1091 ft | 115 kts | 61° |
| 2026-04-20 13:36 | 51.25990 | -0.82381 | 905 ft | 116 kts | 61° |
| 2026-04-20 13:36 | 51.26373 | -0.81235 | 702 ft | 117 kts | 62° |
| 2026-04-20 13:36 | 51.26756 | -0.80087 | 506 ft | 116 kts | 61° |
| 2026-04-20 13:36 | 51.27134 | -0.78958 | 315 ft | 116 kts | 61° |
| 2026-04-20 13:37 | 51.27494 | -0.77896 | 242 ft | 95 kts | 60° |
| 2026-04-20 13:37 | 51.27650 | -0.77414 | 242 ft | 18 kts | 61° |
| 2026-04-20 13:37 | 51.27721 | -0.77208 | 242 ft | 24 kts | 60° |
| 2026-04-20 13:37 | 51.27816 | -0.77005 | 242 ft | 21 kts | 31° |
| 2026-04-20 13:38 | 51.27945 | -0.76873 | 242 ft | 22 kts | 33° |
| 2026-04-20 13:38 | 51.27994 | -0.76820 | 242 ft | 0 kts | 33° |
| 2026-04-20 13:38 | 51.27996 | -0.76819 | 242 ft | 2 kts | 34° |
| 2026-04-20 13:39 | 51.28042 | -0.76790 | 242 ft | 11 kts | 343° |
| 2026-04-20 13:39 | 51.28083 | -0.76924 | 242 ft | 16 kts | 287° |
| 2026-04-20 13:39 | 51.28122 | -0.77120 | 242 ft | 20 kts | 287° |
| 2026-04-20 13:39 | 51.28162 | -0.77330 | 242 ft | 17 kts | 288° |
| 2026-04-20 13:40 | 51.28198 | -0.77500 | 242 ft | 9 kts | 288° |
| 2026-04-20 13:40 | 51.28248 | -0.77586 | 242 ft | 11 kts | 337° |
| 2026-04-20 13:40 | 51.28273 | -0.77613 | 242 ft | 1 kts | 307° |
| 2026-04-20 13:40 | 51.28274 | -0.77616 | 242 ft | 0 kts | 306° |